Time;durP1;ratioP1;P1;durP2;ratioP2;P2;SDS_P1;SDS_P2;PMS_P1;PMS_P2;Temp;Humidity;BMP_temperature;BMP_pressure;BME280_temperature;BME280_humidity;BME280_pressure;Samples;Min_cycle;Max_cycle;Signal;HPM_P1;HPM_P2
2022/12/12 00:00:12;;;;;;;8.15;5.72;;;;;;;3.40;78.26;92117.75;5051346;28;20035;-34
2022/12/12 00:02:38;;;;;;;;;;;;;;;3.45;79.38;92117.59;5050877;28;20147;-34
2022/12/12 00:05:05;;;;;;;8.57;5.43;;;;;;;3.48;79.70;92132.19;5050802;28;19995;-35
2022/12/12 00:07:31;;;;;;;7.40;5.47;;;;;;;3.45;78.99;92130.50;5050699;28;20017;-34
2022/12/12 00:09:56;;;;;;;7.95;5.63;;;;;;;3.61;77.78;92127.38;5050797;28;20036;-34
2022/12/12 00:12:21;;;;;;;7.95;5.28;;;;;;;3.61;77.82;92124.63;5050785;28;20029;-34
2022/12/12 00:14:47;;;;;;;7.40;5.95;;;;;;;3.57;78.22;92121.50;5051038;28;20025;-34
2022/12/12 00:17:12;;;;;;;7.80;5.63;;;;;;;3.53;78.68;92117.66;5050739;28;20020;-35
2022/12/12 00:19:38;;;;;;;10.60;6.35;;;;;;;3.58;78.49;92122.22;5050965;28;20029;-34
2022/12/12 00:22:03;;;;;;;10.05;6.32;;;;;;;3.47;79.21;92128.72;5050556;28;20082;-34
2022/12/12 00:24:28;;;;;;;11.63;7.10;;;;;;;3.58;79.53;92138.59;5050928;28;20029;-34
2022/12/12 00:26:54;;;;;;;11.43;7.55;;;;;;;3.61;80.48;92138.28;5050387;28;20091;-35
2022/12/12 00:29:19;;;;;;;14.40;8.20;;;;;;;3.52;80.94;92127.09;5050687;28;20028;-34
2022/12/12 00:31:45;;;;;;;13.55;8.25;;;;;;;3.68;80.56;92136.88;5049541;28;20017;-34
2022/12/12 00:34:10;;;;;;;12.63;8.45;;;;;;;3.74;80.68;92140.19;5050367;28;20021;-34
2022/12/12 00:36:36;;;;;;;10.30;7.70;;;;;;;3.67;81.10;92135.41;5050707;28;20036;-34
2022/12/12 00:39:02;;;;;;;12.50;8.90;;;;;;;3.76;80.96;92156.75;5050242;28;20040;-34
2022/12/12 00:41:28;;;;;;;10.90;7.75;;;;;;;3.52;80.56;92154.41;5050277;28;20071;-34
2022/12/12 00:43:53;;;;;;;6.82;5.60;;;;;;;3.44;80.28;92153.63;5050528;28;20021;-34
2022/12/12 00:46:22;;;;;;;8.57;5.88;;;;;;;3.50;79.77;92151.47;5050036;28;20141;-34
2022/12/12 00:48:47;;;;;;;7.57;6.28;;;;;;;3.51;80.07;92150.94;5050288;28;20029;-34
2022/12/12 00:51:17;;;;;;;7.18;5.82;;;;;;;3.54;80.00;92154.59;5050097;28;20037;-34
2022/12/12 00:53:43;;;;;;;8.88;5.30;;;;;;;3.31;79.94;92120.97;5050201;28;20025;-34
2022/12/12 00:56:08;;;;;;;8.45;5.70;;;;;;;3.51;79.36;92145.47;5050122;28;20025;-34
2022/12/12 00:58:34;;;;;;;8.48;6.70;;;;;;;3.45;79.49;92142.16;5050377;28;20021;-34
2022/12/12 01:01:06;;;;;;;7.80;5.63;;;;;;;3.40;79.57;92143.03;5049120;28;20052;-34
2022/12/12 01:03:36;;;;;;;7.97;5.60;;;;;;;3.35;80.16;92156.81;5050171;28;20064;-34
2022/12/12 01:06:02;;;;;;;6.95;5.28;;;;;;;3.38;79.79;92150.28;5050027;28;20074;-34
2022/12/12 01:08:28;;;;;;;7.47;5.20;;;;;;;3.25;79.85;92144.91;5050206;28;20467;-34
2022/12/12 01:10:53;;;;;;;8.07;5.85;;;;;;;3.35;79.86;92145.91;5049986;28;20501;-34
2022/12/12 01:13:19;;;;;;;8.63;6.43;;;;;;;3.29;79.49;92139.84;5050141;28;20040;-34
2022/12/12 01:15:45;;;;;;;26.42;14.07;;;;;;;3.30;79.80;92130.38;5053068;28;20103;-34
2022/12/12 01:18:11;;;;;;;12.55;8.18;;;;;;;3.29;80.21;92118.03;5054408;28;20009;-34
2022/12/12 01:20:36;;;;;;;6.88;4.90;;;;;;;3.16;79.77;92121.56;5054275;28;20408;-34
2022/12/12 01:23:02;;;;;;;6.25;5.30;;;;;;;2.88;80.58;92124.94;5053909;28;20032;-34
2022/12/12 01:25:27;;;;;;;9.85;5.38;;;;;;;2.75;81.96;92141.34;5053618;28;20029;-34
2022/12/12 01:27:52;;;;;;;7.75;6.03;;;;;;;2.79;83.03;92141.78;5053875;28;20504;-34
2022/12/12 01:30:20;;;;;;;6.25;5.15;;;;;;;2.93;82.27;92140.44;5053842;28;20036;-34
2022/12/12 01:32:46;;;;;;;5.68;4.80;;;;;;;2.89;82.91;92153.69;5033833;28;20040;-34
2022/12/12 01:35:11;;;;;;;6.88;4.63;;;;;;;2.91;82.87;92153.13;5033797;28;20029;-34
2022/12/12 01:37:38;;;;;;;7.65;5.50;;;;;;;2.91;81.59;92161.31;5033796;28;20022;-35
2022/12/12 01:40:05;;;;;;;5.35;4.70;;;;;;;2.87;80.98;92156.22;5033778;28;20022;-34
2022/12/12 01:42:31;;;;;;;5.18;4.68;;;;;;;2.83;81.11;92174.88;5048384;28;20075;-34
2022/12/12 01:44:57;;;;;;;5.50;4.72;;;;;;;2.62;81.43;92144.13;5053361;28;20044;-34
2022/12/12 01:47:23;;;;;;;4.97;4.25;;;;;;;2.65;82.07;92167.59;5053495;28;20033;-34
2022/12/12 01:50:16;;;;;;;8.05;4.65;;;;;;;2.88;82.07;92178.75;5053856;28;20021;-34
2022/12/12 01:52:47;;;;;;;5.68;4.13;;;;;;;2.92;82.46;92179.16;5051312;28;20037;-34
2022/12/12 01:55:17;;;;;;;10.18;5.97;;;;;;;3.05;81.83;92171.63;5052152;28;20021;-34
2022/12/12 01:57:45;;;;;;;6.78;5.43;;;;;;;3.18;81.66;92161.94;5052506;28;20021;-34
2022/12/12 02:00:12;;;;;;;7.13;4.90;;;;;;;3.17;81.24;92158.47;5053371;28;20021;-35
2022/12/12 02:02:38;;;;;;;9.25;6.25;;;;;;;2.92;82.11;92147.16;5053230;28;20040;-34
2022/12/12 02:05:08;;;;;;;7.35;5.55;;;;;;;2.97;82.25;92154.47;5053400;28;20021;-34
2022/12/12 02:07:33;;;;;;;7.00;4.53;;;;;;;3.01;82.21;92148.72;5053315;28;20028;-34
2022/12/12 02:09:59;;;;;;;6.93;4.97;;;;;;;2.82;82.61;92145.41;5053205;28;20547;-34
2022/12/12 02:12:24;;;;;;;6.00;4.68;;;;;;;2.82;82.70;92140.69;5053409;28;20405;-34
2022/12/12 02:14:51;;;;;;;8.30;6.18;;;;;;;2.84;82.75;92148.34;5053322;28;20020;-34
2022/12/12 02:17:29;;;;;;;6.65;4.88;;;;;;;2.83;83.29;92155.81;5052047;28;20443;-35
2022/12/12 02:20:27;;;;;;;7.32;5.32;;;;;;;2.75;83.77;92157.69;5053345;28;20028;-34
2022/12/12 02:23:13;;;;;;;13.82;8.95;;;;;;;2.62;84.77;92157.75;5044465;28;20037;-34
2022/12/12 02:26:00;;;;;;;11.57;8.10;;;;;;;2.45;85.72;92159.38;5052171;28;20021;-34
2022/12/12 02:28:40;;;;;;;9.52;5.85;;;;;;;2.65;84.20;92158.69;5052665;28;20108;-34
2022/12/12 02:31:21;;;;;;;8.48;5.75;;;;;;;2.74;83.33;92161.69;5052848;28;20036;-34
2022/12/12 02:33:55;;;;;;;6.78;5.25;;;;;;;2.78;82.17;92169.53;5052609;28;20025;-34
2022/12/12 02:36:33;;;;;;;8.85;6.80;;;;;;;2.81;82.17;92169.22;5051474;28;20028;-34
2022/12/12 02:39:06;;;;;;;7.53;5.10;;;;;;;2.70;82.50;92163.28;5051437;28;20475;-34
2022/12/12 02:41:45;;;;;;;6.13;4.45;;;;;;;2.48;82.85;92148.16;5051661;28;20028;-34
2022/12/12 02:44:27;;;;;;;6.57;4.70;;;;;;;2.73;82.86;92178.59;5052348;28;20032;-35
2022/12/12 02:47:08;;;;;;;5.65;4.32;;;;;;;2.69;83.04;92180.88;5052677;28;20370;-34
2022/12/12 02:49:52;;;;;;;7.18;5.03;;;;;;;2.63;83.48;92181.03;5052422;28;20570;-34
2022/12/12 02:52:18;;;;;;;5.47;4.35;;;;;;;2.65;83.74;92188.66;5051125;28;20036;-34
2022/12/12 02:54:43;;;;;;;8.13;5.05;;;;;;;2.60;84.00;92181.34;5051099;28;20087;-35
2022/12/12 02:57:15;;;;;;;9.82;4.38;;;;;;;2.46;84.34;92193.53;5052418;28;20024;-34
2022/12/12 02:59:41;;;;;;;5.55;4.22;;;;;;;2.54;85.06;92203.25;5052249;28;20150;-34
2022/12/12 03:02:36;;;;;;;5.95;4.70;;;;;;;2.56;85.27;92203.47;5050970;28;20031;-34
2022/12/12 03:08:51;;;;;;;10.25;6.40;;;;;;;2.57;84.69;92199.47;5031135;28;20036;-34
2022/12/12 03:11:32;;;;;;;10.40;6.30;;;;;;;2.71;83.68;92203.63;5047445;28;20063;-34
2022/12/12 03:14:03;;;;;;;9.20;5.97;;;;;;;2.67;82.86;92175.97;5047506;28;20021;-34
2022/12/12 03:16:34;;;;;;;6.55;5.25;;;;;;;2.62;83.09;92195.19;5031990;28;20490;-34
2022/12/12 03:19:21;;;;;;;8.40;5.40;;;;;;;2.69;82.86;92202.69;5047003;28;20032;-34
2022/12/12 03:22:05;;;;;;;8.60;5.25;;;;;;;2.68;82.59;92191.06;5031881;28;20489;-34
2022/12/12 03:24:53;;;;;;;7.10;5.53;;;;;;;2.59;83.03;92175.16;5045659;28;20059;-34
2022/12/12 03:27:21;;;;;;;8.60;6.20;;;;;;;2.34;84.06;92171.22;5050677;28;20033;-34
2022/12/12 03:30:04;;;;;;;7.50;5.38;;;;;;;2.38;84.60;92174.38;5051612;28;20017;-34
2022/12/12 03:32:38;;;;;;;12.07;6.28;;;;;;;2.27;84.39;92185.50;5050785;28;20033;-34
2022/12/12 03:35:18;;;;;;;11.13;7.60;;;;;;;2.23;84.58;92188.53;5050366;28;20571;-34
2022/12/12 03:38:10;;;;;;;10.18;7.25;;;;;;;2.13;85.36;92192.19;5050205;28;20051;-34
2022/12/12 03:40:42;;;;;;;8.73;6.70;;;;;;;2.13;85.01;92192.19;5047255;28;20040;-34
2022/12/12 03:43:10;;;;;;;13.35;7.63;;;;;;;2.14;85.43;92185.50;5051501;28;20025;-34
2022/12/12 03:45:41;;;;;;;13.15;8.10;;;;;;;2.21;84.56;92180.16;5050239;28;20124;-34
2022/12/12 03:48:11;;;;;;;11.70;7.95;;;;;;;2.10;84.24;92180.38;5051392;28;20083;-34
2022/12/12 03:50:43;;;;;;;11.10;7.55;;;;;;;2.09;83.75;92192.53;5050121;28;20021;-34
2022/12/12 03:53:10;;;;;;;9.70;6.88;;;;;;;2.06;83.38;92192.84;5051459;28;20024;-34
2022/12/12 03:55:47;;;;;;;11.77;7.50;;;;;;;2.06;83.87;92190.84;5051353;28;20071;-34
2022/12/12 03:58:22;;;;;;;10.15;5.68;;;;;;;2.04;84.25;92192.63;5050042;28;20021;-35
2022/12/12 04:00:50;;;;;;;15.40;8.10;;;;;;;2.07;85.31;92194.31;5050239;28;20452;-34
2022/12/12 04:03:31;;;;;;;11.85;7.72;;;;;;;1.95;85.16;92174.72;5050847;28;20546;-34
2022/12/12 04:06:27;;;;;;;8.18;6.18;;;;;;;2.10;84.41;92198.72;5050040;28;20025;-34
2022/12/12 04:15:12;;;;;;;15.13;8.20;;;;;;;1.85;84.22;92203.63;5051003;28;20103;-34
2022/12/12 04:18:10;;;;;;;21.98;8.82;;;;;;;1.66;85.00;92197.53;5051036;28;20028;-34
2022/12/12 04:23:54;;;;;;;23.77;8.82;;;;;;;1.64;85.90;92200.06;5050122;28;20125;-34
2022/12/12 04:26:39;;;;;;;17.63;9.65;;;;;;;1.58;86.87;92212.28;5050573;28;20029;-34
2022/12/12 04:29:36;;;;;;;20.88;8.32;;;;;;;1.48;87.21;92209.22;5049236;28;20025;-34
2022/12/12 04:32:23;;;;;;;7.65;5.97;;;;;;;1.41;87.29;92215.28;5050465;28;20596;-34
2022/12/12 04:35:04;;;;;;;7.68;5.65;;;;;;;1.46;87.70;92212.47;5050515;28;20021;-34
2022/12/12 04:37:32;;;;;;;9.35;4.97;;;;;;;1.62;87.87;92212.72;5049344;28;20021;-34
2022/12/12 04:40:01;;;;;;;7.88;5.43;;;;;;;1.69;87.68;92217.53;5049215;28;20408;-34
2022/12/12 04:42:31;;;;;;;8.18;5.90;;;;;;;1.80;88.04;92217.34;5049347;28;20451;-34
2022/12/12 04:45:02;;;;;;;9.63;6.00;;;;;;;1.84;86.95;92209.59;5050032;28;20071;-34
2022/12/12 04:47:29;;;;;;;12.10;6.15;;;;;;;1.98;86.83;92232.84;5049335;28;20156;-34
2022/12/12 04:49:55;;;;;;;10.00;6.53;;;;;;;1.86;86.65;92202.38;5048476;28;20025;-34
2022/12/12 04:52:22;;;;;;;7.00;4.95;;;;;;;2.05;86.75;92237.66;5050302;28;20021;-34
2022/12/12 04:55:19;;;;;;;12.88;6.75;;;;;;;2.09;86.91;92238.06;5048951;28;20024;-34
2022/12/12 04:57:48;;;;;;;25.95;12.07;;;;;;;2.15;86.80;92230.53;5050211;28;20587;-34
2022/12/12 05:00:14;;;;;;;20.55;13.13;;;;;;;2.23;86.49;92248.44;5050209;28;20029;-34
2022/12/12 05:02:51;;;;;;;20.27;12.18;;;;;;;2.25;85.80;92240.47;5050080;28;20497;-34
2022/12/12 05:05:27;;;;;;;20.33;10.25;;;;;;;2.32;85.90;92244.56;5049174;28;20048;-34
2022/12/12 05:07:59;;;;;;;21.33;11.10;;;;;;;2.33;85.46;92253.47;5028933;28;20413;-34
2022/12/12 05:10:25;;;;;;;17.58;9.43;;;;;;;2.30;85.14;92255.97;5029292;28;20083;-34
2022/12/12 05:12:56;;;;;;;22.13;9.50;;;;;;;2.17;85.44;92255.97;5029213;28;20033;-34
2022/12/12 05:15:22;;;;;;;13.38;8.15;;;;;;;2.08;85.53;92248.22;5030189;28;20032;-34
2022/12/12 05:17:58;;;;;;;25.15;7.97;;;;;;;2.21;84.85;92258.38;5049073;28;20021;-34
2022/12/12 05:20:24;;;;;;;62.40;10.40;;;;;;;2.28;84.49;92255.03;5050261;28;20454;-35
2022/12/12 05:22:50;;;;;;;77.55;10.25;;;;;;;2.11;85.55;92257.34;5049933;28;20032;-34
2022/12/12 05:25:15;;;;;;;37.58;7.70;;;;;;;1.88;85.71;92259.00;5049459;28;20036;-34
2022/12/12 05:27:40;;;;;;;43.25;8.00;;;;;;;1.81;86.37;92248.72;5050096;28;20048;-34
2022/12/12 05:30:07;;;;;;;49.97;8.00;;;;;;;1.63;86.80;92244.09;5050032;28;20071;-34
2022/12/12 05:32:32;;;;;;;37.40;7.13;;;;;;;1.64;87.09;92242.84;5048636;28;20394;-34
2022/12/12 05:34:58;;;;;;;28.45;10.77;;;;;;;1.71;87.70;92251.09;5049760;28;20091;-34
2022/12/12 05:37:23;;;;;;;29.77;9.60;;;;;;;1.83;88.04;92243.50;5050004;28;20024;-34
2022/12/12 05:39:49;;;;;;;25.23;7.25;;;;;;;1.82;88.95;92247.50;5049695;28;20500;-34
2022/12/12 05:42:14;;;;;;;23.58;6.88;;;;;;;1.91;88.59;92255.22;5049687;28;20025;-34
2022/12/12 05:44:40;;;;;;;30.65;9.52;;;;;;;2.01;88.01;92264.47;5049468;28;20041;-34
2022/12/12 05:47:06;;;;;;;20.38;8.15;;;;;;;2.03;87.74;92264.66;5049845;28;20021;-34
2022/12/12 05:49:31;;;;;;;43.03;10.85;;;;;;;2.00;87.87;92254.81;5049943;28;20029;-34
2022/12/12 05:51:57;;;;;;;46.60;11.13;;;;;;;2.12;86.38;92267.69;5049834;28;20500;-34
2022/12/12 05:54:22;;;;;;;101.72;14.05;;;;;;;2.17;85.88;92266.13;5049631;28;20017;-34
2022/12/12 05:56:48;;;;;;;64.38;13.38;;;;;;;2.13;85.96;92266.44;5049525;28;20014;-34
2022/12/12 05:59:13;;;;;;;47.78;12.02;;;;;;;2.06;86.29;92264.34;5049810;28;20029;-34
2022/12/12 06:01:39;;;;;;;28.33;9.65;;;;;;;2.08;87.05;92272.00;5052152;28;20503;-34
2022/12/12 06:04:04;;;;;;;67.38;11.13;;;;;;;2.08;87.26;92283.63;5053210;28;20029;-34
2022/12/12 06:06:30;;;;;;;88.57;12.10;;;;;;;2.01;86.90;92276.09;5053104;28;20032;-34
2022/12/12 06:08:56;;;;;;;26.83;9.85;;;;;;;2.01;86.91;92286.25;5053131;28;20017;-34
2022/12/12 06:11:21;;;;;;;26.55;9.70;;;;;;;2.08;87.14;92291.78;5053140;28;20036;-34
2022/12/12 06:13:46;;;;;;;31.23;10.32;;;;;;;2.14;86.36;92299.88;5052963;28;20512;-34
2022/12/12 06:16:14;;;;;;;35.88;12.68;;;;;;;2.17;86.21;92296.06;5053090;28;20021;-34
2022/12/12 06:18:40;;;;;;;19.92;9.18;;;;;;;2.18;86.89;92297.56;5053024;28;20027;-34
2022/12/12 06:21:08;;;;;;;37.33;12.90;;;;;;;2.16;86.44;92297.34;5052870;28;20017;-34
2022/12/12 06:23:41;;;;;;;56.33;16.65;;;;;;;2.21;86.56;92282.88;5053006;28;20592;-34
2022/12/12 06:26:08;;;;;;;66.65;18.17;;;;;;;2.16;86.77;92298.09;5052755;28;20025;-34
2022/12/12 06:28:34;;;;;;;60.03;15.70;;;;;;;2.14;87.41;92289.69;5052890;28;20052;-34
2022/12/12 06:31:00;;;;;;;49.72;13.02;;;;;;;2.24;87.31;92288.03;5052660;28;20025;-34
2022/12/12 06:33:26;;;;;;;40.88;8.10;;;;;;;2.33;86.63;92294.31;5052612;28;20013;-34
2022/12/12 06:36:05;;;;;;;15.75;8.07;;;;;;;2.30;85.74;92294.09;5053060;28;20068;-34
2022/12/12 06:38:31;;;;;;;30.20;10.07;;;;;;;2.35;85.80;92300.72;5052634;28;20106;-34
2022/12/12 06:40:57;;;;;;;25.95;11.82;;;;;;;2.44;86.50;92308.47;5052834;28;20020;-34
2022/12/12 06:43:23;;;;;;;35.45;6.90;;;;;;;2.59;86.03;92310.66;5052766;28;20025;-34
2022/12/12 06:45:48;;;;;;;22.73;8.52;;;;;;;2.67;86.10;92304.03;5052219;28;20521;-34
2022/12/12 06:48:14;;;;;;;25.33;9.40;;;;;;;2.86;85.39;92318.28;5052376;28;20036;-34
2022/12/12 06:50:41;;;;;;;42.88;10.13;;;;;;;2.76;84.04;92311.81;5052649;28;20013;-34
2022/12/12 06:53:06;;;;;;;23.20;10.15;;;;;;;2.70;84.31;92310.44;5051383;28;20100;-35
2022/12/12 06:55:32;;;;;;;19.42;9.77;;;;;;;2.76;84.57;92330.88;5052387;28;20028;-34
2022/12/12 06:57:57;;;;;;;30.05;10.02;;;;;;;2.88;84.17;92331.41;5051294;28;20482;-34
2022/12/12 07:00:23;;;;;;;28.95;10.57;;;;;;;2.94;84.26;92335.47;5052296;28;20038;-34
2022/12/12 07:06:22;;;;;;;19.55;11.20;;;;;;;2.97;83.60;92334.41;5062159;27;1990778;-34
2022/12/12 07:08:48;;;;;;;31.65;13.13;;;;;;;2.98;83.60;92346.06;5100006;28;20569;-34
2022/12/12 07:11:18;;;;;;;19.30;10.50;;;;;;;3.04;82.69;92343.94;5087597;28;20028;-34
2022/12/12 07:13:44;;;;;;;12.55;8.07;;;;;;;3.06;82.79;92346.88;5087959;28;20430;-34
2022/12/12 07:16:09;;;;;;;16.55;8.65;;;;;;;2.93;83.31;92339.44;5087851;28;20016;-34
2022/12/12 07:18:35;;;;;;;18.10;9.32;;;;;;;3.17;83.14;92357.56;5087566;28;20561;-34
2022/12/12 07:21:05;;;;;;;16.40;8.15;;;;;;;3.25;82.56;92360.38;5087424;28;20031;-34
2022/12/12 07:23:31;;;;;;;14.15;8.07;;;;;;;3.33;82.21;92366.66;5087754;28;20024;-34
2022/12/12 07:25:57;;;;;;;18.58;8.57;;;;;;;3.35;81.62;92361.41;5097519;28;20403;-34
2022/12/12 07:28:22;;;;;;;17.40;7.43;;;;;;;3.36;82.43;92365.59;5108089;28;20015;-34
2022/12/12 07:30:48;;;;;;;12.63;7.45;;;;;;;3.51;83.35;92369.22;5092703;28;20046;-34
2022/12/12 07:33:17;;;;;;;22.05;7.15;;;;;;;3.63;81.34;92375.91;5087425;28;20024;-34
2022/12/12 07:35:43;;;;;;;16.40;6.72;;;;;;;3.85;81.79;92371.94;5087307;28;20021;-34
2022/12/12 07:38:10;;;;;;;15.55;5.50;;;;;;;4.11;81.58;92374.56;5068939;28;20108;-34
2022/12/12 07:40:35;;;;;;;13.27;6.88;;;;;;;4.24;78.92;92371.03;5087121;28;20021;-34
2022/12/12 07:43:01;;;;;;;14.18;7.40;;;;;;;4.35;79.27;92381.69;5105819;28;20019;-34
2022/12/12 07:45:27;;;;;;;13.95;7.45;;;;;;;4.49;79.05;92375.59;5107185;28;20028;-34
2022/12/12 07:47:53;;;;;;;11.10;6.93;;;;;;;4.61;77.97;92389.72;5107599;28;20030;-34
2022/12/12 07:50:19;;;;;;;25.27;9.30;;;;;;;4.59;77.68;92384.06;5107181;28;20023;-34
2022/12/12 07:52:44;;;;;;;16.38;8.57;;;;;;;4.63;76.40;92394.66;5089094;28;20027;-34
2022/12/12 07:55:10;;;;;;;25.75;10.95;;;;;;;4.56;76.33;92385.13;5107055;28;20073;-35
2022/12/12 07:57:37;;;;;;;36.80;11.50;;;;;;;4.47;76.99;92383.59;5107150;28;20112;-34
2022/12/12 08:00:05;;;;;;;15.70;9.05;;;;;;;4.56;77.84;92380.41;5107331;28;20024;-34
2022/12/12 08:02:31;;;;;;;16.77;7.43;;;;;;;4.83;78.59;92386.41;5107345;28;20052;-34
2022/12/12 08:04:56;;;;;;;14.23;5.47;;;;;;;4.98;77.37;92397.44;5106951;28;20086;-34
2022/12/12 08:07:21;;;;;;;9.57;6.57;;;;;;;5.03;76.19;92398.56;5107119;28;20393;-34
2022/12/12 08:09:47;;;;;;;13.35;7.30;;;;;;;5.22;76.34;92405.22;5090415;28;20515;-35
2022/12/12 08:12:12;;;;;;;16.25;8.85;;;;;;;5.53;76.79;92406.09;5086822;28;20484;-34
2022/12/12 08:14:38;;;;;;;19.85;9.93;;;;;;;6.06;76.74;92406.31;5086691;28;20473;-34
2022/12/12 08:17:03;;;;;;;65.47;34.72;;;;;;;6.62;74.63;92405.28;5076904;28;20025;-34
2022/12/12 08:19:29;;;;;;;14.15;9.82;;;;;;;6.82;72.36;92416.06;5073104;28;20020;-35
2022/12/12 08:21:54;;;;;;;12.68;7.53;;;;;;;7.07;71.39;92410.00;5072819;28;20097;-34
2022/12/12 08:24:20;;;;;;;10.77;7.05;;;;;;;7.29;69.54;92403.75;5072667;28;20052;-35
2022/12/12 08:26:48;;;;;;;17.05;9.70;;;;;;;7.61;67.97;92401.84;5089581;28;20028;-34
2022/12/12 08:29:13;;;;;;;10.52;7.97;;;;;;;7.99;66.82;92407.16;5090865;28;20039;-34
2022/12/12 08:31:39;;;;;;;9.25;6.35;;;;;;;8.24;64.49;92393.47;5072693;28;20025;-35
2022/12/12 08:34:04;;;;;;;8.93;6.28;;;;;;;8.77;63.93;92412.41;5072625;28;20028;-35
2022/12/12 08:36:31;;;;;;;11.70;7.40;;;;;;;8.89;62.99;92408.63;5072830;28;20103;-35
2022/12/12 08:39:00;;;;;;;7.47;5.10;;;;;;;9.37;61.31;92414.63;5072733;28;20397;-35
2022/12/12 08:41:26;;;;;;;6.35;5.00;;;;;;;9.72;60.71;92409.84;5060055;28;20024;-35
2022/12/12 08:43:51;;;;;;;7.55;5.45;;;;;;;10.13;60.01;92411.78;5092901;28;20389;-35
2022/12/12 08:46:18;;;;;;;7.75;5.68;;;;;;;10.90;58.69;92412.16;5092869;28;20411;-35
2022/12/12 08:48:46;;;;;;;7.40;5.45;;;;;;;11.20;56.47;92411.69;5092715;28;20024;-35
2022/12/12 08:51:12;;;;;;;7.88;5.60;;;;;;;11.09;56.03;92409.47;5092005;28;20538;-35
2022/12/12 08:53:37;;;;;;;6.95;5.53;;;;;;;10.83;57.78;92404.75;5092810;28;20035;-35
2022/12/12 08:56:03;;;;;;;6.50;5.03;;;;;;;10.55;57.83;92406.78;5092622;28;20058;-35
2022/12/12 08:58:29;;;;;;;8.00;5.30;;;;;;;10.27;57.54;92396.31;5092351;28;20500;-35
2022/12/12 09:00:55;;;;;;;8.60;4.78;;;;;;;9.90;60.14;92403.03;5092342;28;20028;-34
2022/12/12 09:03:21;;;;;;;12.25;8.40;;;;;;;9.67;61.29;92408.81;5092493;28;20020;-34
2022/12/12 09:05:46;;;;;;;20.50;12.23;;;;;;;9.55;62.10;92385.06;5088090;28;20536;-35
2022/12/12 09:08:12;;;;;;;10.98;7.60;;;;;;;9.76;62.92;92404.66;5054039;28;20028;-35
2022/12/12 09:10:39;;;;;;;8.23;6.15;;;;;;;9.72;63.31;92404.34;5071940;28;20107;-35
2022/12/12 09:13:06;;;;;;;14.88;8.00;;;;;;;9.59;64.31;92401.91;5072090;28;20024;-35
2022/12/12 09:15:32;;;;;;;20.55;8.52;;;;;;;9.35;65.78;92391.69;5071811;28;20021;-35
2022/12/12 09:17:58;;;;;;;11.70;8.95;;;;;;;9.37;65.90;92383.59;5072026;28;20408;-35
2022/12/12 09:20:23;;;;;;;10.68;7.85;;;;;;;9.39;66.38;92397.53;5071719;28;20020;-35
2022/12/12 09:22:49;;;;;;;9.23;7.70;;;;;;;9.37;66.67;92386.34;5071961;28;20035;-34
2022/12/12 09:25:14;;;;;;;11.38;6.85;;;;;;;9.40;67.14;92393.50;5075519;28;20093;-34
2022/12/12 09:27:40;;;;;;;11.13;6.82;;;;;;;9.31;66.80;92385.88;5091078;28;20031;-35
2022/12/12 09:30:06;;;;;;;15.35;7.93;;;;;;;9.25;67.39;92397.09;5082681;28;20023;-35
2022/12/12 09:32:31;;;;;;;15.07;9.30;;;;;;;8.94;68.30;92393.19;5071724;28;20043;-35
2022/12/12 09:34:57;;;;;;;18.67;12.55;;;;;;;8.81;68.31;92399.72;5071444;28;20020;-35
2022/12/12 09:37:22;;;;;;;16.60;9.48;;;;;;;8.69;69.14;92404.19;5071638;28;20020;-34
2022/12/12 09:39:51;;;;;;;12.07;8.40;;;;;;;8.60;69.78;92407.56;5071640;28;20519;-34
2022/12/12 09:42:23;;;;;;;7.03;6.13;;;;;;;8.44;70.15;92395.22;5083845;28;20504;-34
2022/12/12 09:44:50;;;;;;;12.15;7.78;;;;;;;8.26;70.68;92390.91;5091392;28;20063;-34
2022/12/12 09:47:35;;;;;;;9.13;6.32;;;;;;;8.24;72.11;92385.22;5073290;28;20400;-35
2022/12/12 09:50:24;;;;;;;9.98;6.32;;;;;;;8.01;72.76;92388.09;5073612;28;20020;-35
2022/12/12 09:52:49;;;;;;;;;;;;;;;7.62;74.62;92392.28;5074293;28;20407;-34
2022/12/12 09:55:38;;;;;;;6.63;5.75;;;;;;;7.50;74.50;92388.50;5073166;28;20007;-35
2022/12/12 09:58:15;;;;;;;7.75;5.35;;;;;;;7.61;74.17;92370.88;5073589;28;20031;-34
2022/12/12 10:00:56;;;;;;;7.93;5.70;;;;;;;7.65;73.77;92363.72;5091317;28;20040;-34
2022/12/12 10:03:33;;;;;;;6.72;5.10;;;;;;;7.75;74.75;92376.88;5091060;28;20049;-34
2022/12/12 10:06:05;;;;;;;7.07;5.55;;;;;;;7.68;75.08;92363.91;5067249;28;20079;-34
2022/12/12 10:08:40;;;;;;;9.95;6.95;;;;;;;7.74;76.07;92376.13;5052852;28;20043;-34
2022/12/12 10:13:59;;;;;;;11.70;7.97;;;;;;;7.84;76.01;92370.78;5071035;28;20027;-34
2022/12/12 10:16:24;;;;;;;13.38;8.32;;;;;;;7.82;76.33;92373.38;5053021;28;20054;-35
2022/12/12 10:18:52;;;;;;;15.02;9.60;;;;;;;7.78;77.04;92370.97;5070599;28;20103;-35
2022/12/12 10:21:29;;;;;;;15.63;10.60;;;;;;;7.79;77.08;92372.47;5070756;28;20039;-34
2022/12/12 10:24:14;;;;;;;13.13;9.70;;;;;;;7.70;76.12;92372.31;5053005;28;20244;-34
2022/12/12 10:26:41;;;;;;;14.82;9.60;;;;;;;7.68;75.27;92374.88;5068264;28;20111;-34
2022/12/12 10:29:33;;;;;;;13.43;8.05;;;;;;;7.64;75.84;92367.75;5071929;28;20028;-34
2022/12/12 10:32:14;;;;;;;19.40;10.80;;;;;;;7.68;74.58;92372.88;5065655;28;20037;-35
2022/12/12 10:34:42;;;;;;;21.52;12.48;;;;;;;7.59;75.64;92365.94;5070447;28;20020;-34
2022/12/12 10:37:29;;;;;;;17.50;11.98;;;;;;;7.67;75.91;92370.69;5070259;28;20112;-34
2022/12/12 10:40:32;;;;;;;15.48;10.35;;;;;;;7.82;76.12;92376.13;5070131;28;20032;-34
2022/12/12 10:43:29;;;;;;;23.10;12.18;;;;;;;7.88;74.99;92373.88;5088792;28;20024;-35
2022/12/12 10:46:26;;;;;;;24.55;16.52;;;;;;;8.00;74.43;92374.91;5090419;28;20031;-34
2022/12/12 10:48:52;;;;;;;17.50;12.23;;;;;;;8.04;73.83;92369.75;5090324;28;20050;-34
2022/12/12 10:51:20;;;;;;;38.80;13.30;;;;;;;8.05;74.81;92366.47;5072445;28;20106;-35
2022/12/12 10:53:46;;;;;;;15.77;10.05;;;;;;;8.02;73.41;92366.84;5072678;28;20024;-34
2022/12/12 10:56:30;;;;;;;14.80;8.60;;;;;;;8.03;74.34;92349.06;5090299;28;20506;-34
2022/12/12 10:58:58;;;;;;;9.73;6.13;;;;;;;8.11;73.62;92347.00;5090068;28;20028;-34
2022/12/12 11:01:34;;;;;;;8.93;6.45;;;;;;;8.53;74.66;92358.84;5090472;28;20036;-35
2022/12/12 11:04:00;;;;;;;7.90;6.07;;;;;;;8.88;72.10;92357.63;5090505;28;20111;-34
2022/12/12 11:06:37;;;;;;;8.40;5.57;;;;;;;8.84;70.74;92357.28;5080641;28;20044;-35
2022/12/12 11:09:20;;;;;;;10.73;6.03;;;;;;;9.14;72.77;92342.50;5070006;28;20028;-34
2022/12/12 11:12:09;;;;;;;6.82;4.57;;;;;;;9.43;70.87;92345.50;5070093;28;20408;-35
2022/12/12 11:14:50;;;;;;;7.38;5.97;;;;;;;9.57;70.04;92343.91;5069429;28;20470;-35
2022/12/12 11:17:23;;;;;;;7.18;4.63;;;;;;;9.53;67.90;92333.25;5070195;28;20161;-35
2022/12/12 11:19:49;;;;;;;6.47;5.25;;;;;;;9.31;69.38;92317.75;5052487;28;20056;-35
2022/12/12 11:22:14;;;;;;;9.10;6.45;;;;;;;10.03;69.24;92317.19;5051992;28;20504;-35
2022/12/12 11:24:45;;;;;;;11.25;5.07;;;;;;;11.07;66.75;92316.13;5051842;28;20115;-35
2022/12/12 11:27:40;;;;;;;6.85;4.72;;;;;;;11.23;63.17;92300.75;5051870;28;20036;-35
2022/12/12 11:30:07;;;;;;;8.68;5.03;;;;;;;11.20;62.95;92295.66;5069921;28;20064;-35
2022/12/12 11:32:41;;;;;;;13.23;8.77;;;;;;;10.96;63.40;92313.94;5090234;28;20028;-35
2022/12/12 11:35:38;;;;;;;7.45;6.45;;;;;;;10.68;64.36;92305.59;5071926;28;20039;-35
2022/12/12 11:38:05;;;;;;;9.65;6.75;;;;;;;10.53;65.77;92293.50;5071903;28;20162;-34
2022/12/12 11:40:33;;;;;;;10.93;6.47;;;;;;;10.38;67.15;92298.50;5072161;28;20463;-34
2022/12/12 11:43:18;;;;;;;9.75;7.28;;;;;;;9.84;68.06;92295.78;5053758;28;20032;-34
2022/12/12 11:46:07;;;;;;;11.18;7.68;;;;;;;9.71;68.99;92309.16;5069877;28;20033;-34
2022/12/12 11:48:38;;;;;;;;;;;;;;;9.68;68.13;92299.31;5052662;28;20077;-35
2022/12/12 11:51:04;;;;;;;9.60;6.57;;;;;;;9.21;71.14;92297.63;5069923;28;19974;-34
2022/12/12 11:53:33;;;;;;;8.35;6.70;;;;;;;9.21;71.83;92283.13;5078965;28;20028;-34
2022/12/12 11:56:17;;;;;;;9.83;7.47;;;;;;;9.31;72.72;92292.22;5093871;28;20019;-34
2022/12/12 11:58:53;;;;;;;8.32;6.03;;;;;;;9.25;71.61;92289.00;5075491;28;20437;-34
2022/12/12 12:01:38;;;;;;;6.07;5.30;;;;;;;9.35;71.79;92284.28;5093739;28;20502;-35
2022/12/12 12:04:10;;;;;;;8.80;5.88;;;;;;;9.46;70.91;92284.50;5075392;28;20028;-35
2022/12/12 12:06:41;;;;;;;7.15;5.28;;;;;;;9.45;71.14;92291.31;5093275;28;20055;-35
2022/12/12 12:09:28;;;;;;;8.90;6.15;;;;;;;9.58;70.33;92284.72;5093595;28;20020;-35
2022/12/12 12:11:56;;;;;;;8.55;6.15;;;;;;;9.64;71.43;92277.66;5075543;28;20422;-35